This is the latest recevied weather packets stored in our database for station/object N8HKU-5. If no packets are shown the sender has not sent any weather packets the latest 10 day(s).
| Time | Temp. | Humidity | Pressure | Rain* | Wind** | Luminosity | Snow |
|---|---|---|---|---|---|---|---|
| 1777938755 | 15° C | 87% | 998.6 hPa | 1.78 mm | - | - | - |
| 1777938154 | 15° C | 88% | 998.2 hPa | 1.52 mm | - | - | - |
| 1777937554 | 15.56° C | 87% | 997.8 hPa | 1.52 mm | - | - | - |
| 1777936954 | 15.56° C | 85% | 997.9 hPa | 1.52 mm | - | - | - |
| 1777936354 | 16.67° C | 81% | 998.5 hPa | 1.27 mm | - | - | - |
| 1777935754 | 20° C | 67% | 998.6 hPa | 0.51 mm | - | - | - |
| 1777935154 | 22.78° C | 49% | 997.2 hPa | 0 mm | - | - | - |
| 1777934554 | 23.33° C | 49% | 997.3 hPa | 0 mm | - | - | - |
| 1777933954 | 23.89° C | 47% | 997.2 hPa | 0 mm | - | - | - |
| 1777933354 | 23.89° C | 50% | 997.2 hPa | 0 mm | - | - | - |
| 1777932754 | 23.33° C | 50% | 997.6 hPa | 0 mm | - | - | - |
| 1777932155 | 23.89° C | 48% | 997.7 hPa | 0 mm | - | - | - |
| 1777931555 | 24.44° C | 46% | 997.8 hPa | 0 mm | - | - | - |
| 1777930954 | 24.44° C | 49% | 997.8 hPa | 0 mm | - | - | - |
| 1777930354 | 24.44° C | 48% | 998 hPa | 0 mm | - | - | - |
| 1777929754 | 23.89° C | 48% | 998.1 hPa | 0 mm | - | - | - |
| 1777929154 | 24.44° C | 46% | 998.3 hPa | 0 mm | - | - | - |
| 1777928554 | 24.44° C | 46% | 998.4 hPa | 0 mm | - | - | - |
| 1777927954 | 23.89° C | 46% | 998.6 hPa | 0 mm | - | - | - |
| 1777927354 | 24.44° C | 42% | 998.7 hPa | 0 mm | - | - | - |
| 1777926756 | 24.44° C | 41% | 998.8 hPa | 0 mm | - | - | - |
| 1777926154 | 24.44° C | 43% | 999 hPa | 0 mm | - | - | - |
| 1777925554 | 23.89° C | 41% | 999.1 hPa | 0 mm | - | - | - |
| 1777924954 | 23.89° C | 40% | 999.1 hPa | 0 mm | - | - | - |
| 1777924354 | 23.89° C | 40% | 999.1 hPa | 0 mm | - | - | - |
* Rain latest hour (hover to see other rain measurements)
** Current wind speed in m/s (hover to see current wind gust speed)